Portada
METAR-TAF:

METAR-TAF

Aeroports :

Andahuaylas, Perú

latitud: 13-43S, longitud: 073-21W, altitud: 3444 m

Observació

L'informe es va fer fa 14 hores i 18 minuts, a les 19:00 UTC
Vent 10 kt del Nord
Temperatura 12°C
Humitat 82%
Pressió 1033 hPa
Visibilitat: 8000 m
Núvols disperses a una alçada de 1200 ft
Cel ennuvolat a una alçada de 5000 ft

METAR: SPHY 011900Z 35010KT 8000 SCT012 BKN050 12/09 Q1033 RMK BIRD HAZARD RWY03/21 PP000

Hora: 04:18 (09:18 UTC)

Pronòstic

L'informe es va fer fa 16 hores i 13 minuts, a les 17:05 UTC
Pronòstic vàlid del 01 a les 18 UTC al 02 a les 18 UTC
Vent 12 kt del Nord
Visibilitat: 8000 m
Núvols disperses a una alçada de 1200 ft
Cel ennuvolat a una alçada de 5000 ft
Evolucionant progressivament
l' 01 a les 21 UTC al 01 a les 23 UTC
Vent 2 kt amb direcció variable
Temporalment
l' 02 a les 00 UTC al 02 a les 02 UTC
pluja

TAF: SPHY 011705Z 0118/0218 01012KT 8000 SCT012 BKN050 TX12/0119Z TN06/0211Z BECMG 0121/0123 VRB02KT TEMPO 0200/0202 RA

Observacions i pronòstics meteorològics de més de 4000 aeroports (METAR i TAF).

Les estacions disponibles són els punts grocs i vermells al mapa.

Posi el ratolí al punt desitjat per veure el nom de l'estació.

Feu clic per veure les observacions i els pronòstics meteorològics.

Per canviar el mapa: feu clic els botons verds amb una creu de color negre per apropar; al botó verd amb un guió per allunyar la imatge; o en les fletxes verdes per a mapes adjacents.


METAR-TAF: